Mobile, Arizona
Current Conditions -  °F | °C
As of 11:55 PM on Wednesday 26 Nov 2014 (Local Time) from KCGZ Reporting Station
Clear Clear  
Wind Chill: 48°   Ceiling: Unl
Heat Index: 48°   Visibility: 10mi
Dew Point: 14°   Wind: 0mph
Humidity: 25%   Direction: NA
Pressure: 30.21"   Gusts: NA
Location:  32.9044°N, 112.146°W
Report Text: KCGZ 270655Z AUTO 00000KT 10SM CLR 09/M10 A3021 RMK AO1
Loading
Personal Weather Stations






























Interactive Weather Map New forecast layout! Learn more

10-Day Weather Forecast

Advertisements
Track Severe Weather on mobile